<?xml version="1.0" encoding="UTF-8" standalone="no" ?>
<gpx xmlns="http://www.topografix.com/GPX/1/1" xmlns:xsi="http://www.w3.org/2001/XMLSchema-instance" xsi:schemaLocation="http://www.topografix.com/GPX/1/1 http://www.topografix.com/GPX/1/1/gpx.xsd" version="1.1" creator="VisuGPX - https://www.visugpx.com">
  <metadata>
    <name>Le bois de Pourrières (Var)</name>
    <desc><![CDATA[Pas très ensoleillé mais, magnifique parterre de fleurs.]]></desc>
  </metadata>
  <trk>
    <name><![CDATA[live stream]]></name>
    <trkseg>
      <trkpt lat="43.51468" lon="5.74449">
        <ele>417.5</ele>
        <time>2012-05-06T09:31:05</time>
      </trkpt>
      <trkpt lat="43.51452" lon="5.74425">
        <ele>397.5</ele>
        <time>2012-05-06T09:31:33</time>
      </trkpt>
      <trkpt lat="43.51472" lon="5.74426">
        <ele>415</ele>
        <time>2012-05-06T09:34:56</time>
      </trkpt>
      <trkpt lat="43.51495" lon="5.74437">
        <ele>421</ele>
        <time>2012-05-06T09:35:26</time>
      </trkpt>
      <trkpt lat="43.51518" lon="5.74448">
        <ele>429</ele>
        <time>2012-05-06T09:35:57</time>
      </trkpt>
      <trkpt lat="43.51552" lon="5.74431">
        <ele>442</ele>
        <time>2012-05-06T09:36:42</time>
      </trkpt>
      <trkpt lat="43.51623" lon="5.74402">
        <ele>458.5</ele>
        <time>2012-05-06T09:37:59</time>
      </trkpt>
      <trkpt lat="43.51659" lon="5.74428">
        <ele>446</ele>
        <time>2012-05-06T09:38:32</time>
      </trkpt>
      <trkpt lat="43.51677" lon="5.74477">
        <ele>450</ele>
        <time>2012-05-06T09:39:19</time>
      </trkpt>
      <trkpt lat="43.51674" lon="5.74577">
        <ele>452.5</ele>
        <time>2012-05-06T09:40:43</time>
      </trkpt>
      <trkpt lat="43.51723" lon="5.74654">
        <ele>449</ele>
        <time>2012-05-06T09:42:26</time>
      </trkpt>
      <trkpt lat="43.51725" lon="5.74686">
        <ele>450.5</ele>
        <time>2012-05-06T09:42:45</time>
      </trkpt>
      <trkpt lat="43.51726" lon="5.74717">
        <ele>449.5</ele>
        <time>2012-05-06T09:43:08</time>
      </trkpt>
      <trkpt lat="43.51677" lon="5.74779">
        <ele>444.5</ele>
        <time>2012-05-06T09:44:10</time>
      </trkpt>
      <trkpt lat="43.51674" lon="5.74819">
        <ele>440</ele>
        <time>2012-05-06T09:44:54</time>
      </trkpt>
      <trkpt lat="43.51654" lon="5.7486">
        <ele>450.5</ele>
        <time>2012-05-06T09:45:34</time>
      </trkpt>
      <trkpt lat="43.51645" lon="5.74899">
        <ele>450.5</ele>
        <time>2012-05-06T09:46:01</time>
      </trkpt>
      <trkpt lat="43.51628" lon="5.74973">
        <ele>452</ele>
        <time>2012-05-06T09:47:05</time>
      </trkpt>
      <trkpt lat="43.51614" lon="5.7502">
        <ele>452.5</ele>
        <time>2012-05-06T09:47:42</time>
      </trkpt>
      <trkpt lat="43.51601" lon="5.75054">
        <ele>459</ele>
        <time>2012-05-06T09:48:06</time>
      </trkpt>
      <trkpt lat="43.51596" lon="5.75122">
        <ele>466.5</ele>
        <time>2012-05-06T09:49:16</time>
      </trkpt>
      <trkpt lat="43.51594" lon="5.75236">
        <ele>466.5</ele>
        <time>2012-05-06T09:50:56</time>
      </trkpt>
      <trkpt lat="43.51624" lon="5.75263">
        <ele>473</ele>
        <time>2012-05-06T09:51:36</time>
      </trkpt>
      <trkpt lat="43.51643" lon="5.75348">
        <ele>470</ele>
        <time>2012-05-06T09:52:42</time>
      </trkpt>
      <trkpt lat="43.51621" lon="5.75394">
        <ele>457.5</ele>
        <time>2012-05-06T09:53:43</time>
      </trkpt>
      <trkpt lat="43.51601" lon="5.75391">
        <ele>458.5</ele>
        <time>2012-05-06T09:54:04</time>
      </trkpt>
      <trkpt lat="43.51573" lon="5.7542">
        <ele>469.5</ele>
        <time>2012-05-06T09:54:39</time>
      </trkpt>
      <trkpt lat="43.51551" lon="5.75439">
        <ele>472</ele>
        <time>2012-05-06T09:55:01</time>
      </trkpt>
      <trkpt lat="43.51533" lon="5.75461">
        <ele>474</ele>
        <time>2012-05-06T09:55:22</time>
      </trkpt>
      <trkpt lat="43.51517" lon="5.75508">
        <ele>473.5</ele>
        <time>2012-05-06T09:55:53</time>
      </trkpt>
      <trkpt lat="43.51523" lon="5.75559">
        <ele>460.5</ele>
        <time>2012-05-06T10:00:25</time>
      </trkpt>
      <trkpt lat="43.51483" lon="5.75567">
        <ele>458.5</ele>
        <time>2012-05-06T10:01:03</time>
      </trkpt>
      <trkpt lat="43.51437" lon="5.75597">
        <ele>459.5</ele>
        <time>2012-05-06T10:01:53</time>
      </trkpt>
      <trkpt lat="43.51452" lon="5.75638">
        <ele>459.5</ele>
        <time>2012-05-06T10:02:24</time>
      </trkpt>
      <trkpt lat="43.51416" lon="5.75666">
        <ele>456</ele>
        <time>2012-05-06T10:03:07</time>
      </trkpt>
      <trkpt lat="43.51365" lon="5.75664">
        <ele>457.5</ele>
        <time>2012-05-06T10:03:48</time>
      </trkpt>
      <trkpt lat="43.5134" lon="5.75693">
        <ele>458</ele>
        <time>2012-05-06T10:04:18</time>
      </trkpt>
      <trkpt lat="43.51344" lon="5.75736">
        <ele>459</ele>
        <time>2012-05-06T10:04:46</time>
      </trkpt>
      <trkpt lat="43.51371" lon="5.75769">
        <ele>461</ele>
        <time>2012-05-06T10:05:20</time>
      </trkpt>
      <trkpt lat="43.51384" lon="5.75791">
        <ele>463.5</ele>
        <time>2012-05-06T10:05:39</time>
      </trkpt>
      <trkpt lat="43.51339" lon="5.75827">
        <ele>457.5</ele>
        <time>2012-05-06T10:06:22</time>
      </trkpt>
      <trkpt lat="43.51324" lon="5.75845">
        <ele>458.5</ele>
        <time>2012-05-06T10:06:39</time>
      </trkpt>
      <trkpt lat="43.51299" lon="5.7589">
        <ele>465.5</ele>
        <time>2012-05-06T10:07:17</time>
      </trkpt>
      <trkpt lat="43.51278" lon="5.75929">
        <ele>467</ele>
        <time>2012-05-06T10:07:46</time>
      </trkpt>
      <trkpt lat="43.51267" lon="5.75951">
        <ele>470.5</ele>
        <time>2012-05-06T10:08:02</time>
      </trkpt>
      <trkpt lat="43.51271" lon="5.76015">
        <ele>470.5</ele>
        <time>2012-05-06T10:08:54</time>
      </trkpt>
      <trkpt lat="43.51249" lon="5.76029">
        <ele>463</ele>
        <time>2012-05-06T10:09:10</time>
      </trkpt>
      <trkpt lat="43.51232" lon="5.76042">
        <ele>460</ele>
        <time>2012-05-06T10:09:24</time>
      </trkpt>
      <trkpt lat="43.51217" lon="5.76058">
        <ele>459</ele>
        <time>2012-05-06T10:09:38</time>
      </trkpt>
      <trkpt lat="43.51216" lon="5.76129">
        <ele>456</ele>
        <time>2012-05-06T10:10:17</time>
      </trkpt>
      <trkpt lat="43.51182" lon="5.76152">
        <ele>455</ele>
        <time>2012-05-06T10:10:57</time>
      </trkpt>
      <trkpt lat="43.51145" lon="5.76143">
        <ele>453.5</ele>
        <time>2012-05-06T10:11:38</time>
      </trkpt>
      <trkpt lat="43.51123" lon="5.76139">
        <ele>452</ele>
        <time>2012-05-06T10:11:55</time>
      </trkpt>
      <trkpt lat="43.51081" lon="5.7614">
        <ele>445.5</ele>
        <time>2012-05-06T10:12:31</time>
      </trkpt>
      <trkpt lat="43.51057" lon="5.7616">
        <ele>446.5</ele>
        <time>2012-05-06T10:12:51</time>
      </trkpt>
      <trkpt lat="43.51049" lon="5.76178">
        <ele>446.5</ele>
        <time>2012-05-06T10:13:03</time>
      </trkpt>
      <trkpt lat="43.51032" lon="5.76184">
        <ele>446</ele>
        <time>2012-05-06T10:13:59</time>
      </trkpt>
      <trkpt lat="43.51012" lon="5.76198">
        <ele>441.5</ele>
        <time>2012-05-06T10:14:17</time>
      </trkpt>
      <trkpt lat="43.50993" lon="5.76206">
        <ele>439.5</ele>
        <time>2012-05-06T10:14:31</time>
      </trkpt>
      <trkpt lat="43.50959" lon="5.76227">
        <ele>441</ele>
        <time>2012-05-06T10:15:00</time>
      </trkpt>
      <trkpt lat="43.50953" lon="5.76272">
        <ele>448.5</ele>
        <time>2012-05-06T10:15:25</time>
      </trkpt>
      <trkpt lat="43.51017" lon="5.76365">
        <ele>460.5</ele>
        <time>2012-05-06T10:16:56</time>
      </trkpt>
      <trkpt lat="43.50993" lon="5.76378">
        <ele>451.5</ele>
        <time>2012-05-06T10:17:15</time>
      </trkpt>
      <trkpt lat="43.50952" lon="5.76378">
        <ele>444.5</ele>
        <time>2012-05-06T10:17:47</time>
      </trkpt>
      <trkpt lat="43.5093" lon="5.76385">
        <ele>444.5</ele>
        <time>2012-05-06T10:18:05</time>
      </trkpt>
      <trkpt lat="43.509" lon="5.7641">
        <ele>448.5</ele>
        <time>2012-05-06T10:18:35</time>
      </trkpt>
      <trkpt lat="43.50885" lon="5.76448">
        <ele>454</ele>
        <time>2012-05-06T10:19:03</time>
      </trkpt>
      <trkpt lat="43.50889" lon="5.76476">
        <ele>459.5</ele>
        <time>2012-05-06T10:19:22</time>
      </trkpt>
      <trkpt lat="43.50888" lon="5.76507">
        <ele>462.5</ele>
        <time>2012-05-06T10:19:43</time>
      </trkpt>
      <trkpt lat="43.5089" lon="5.76551">
        <ele>478.5</ele>
        <time>2012-05-06T10:20:34</time>
      </trkpt>
      <trkpt lat="43.50908" lon="5.76604">
        <ele>484.5</ele>
        <time>2012-05-06T10:21:13</time>
      </trkpt>
      <trkpt lat="43.5091" lon="5.76645">
        <ele>488.5</ele>
        <time>2012-05-06T10:21:53</time>
      </trkpt>
      <trkpt lat="43.50912" lon="5.76699">
        <ele>473</ele>
        <time>2012-05-06T10:23:07</time>
      </trkpt>
      <trkpt lat="43.5095" lon="5.76697">
        <ele>485.5</ele>
        <time>2012-05-06T10:24:00</time>
      </trkpt>
      <trkpt lat="43.51015" lon="5.76722">
        <ele>483.5</ele>
        <time>2012-05-06T10:25:18</time>
      </trkpt>
      <trkpt lat="43.51038" lon="5.76734">
        <ele>488</ele>
        <time>2012-05-06T10:25:44</time>
      </trkpt>
      <trkpt lat="43.51072" lon="5.76756">
        <ele>496.5</ele>
        <time>2012-05-06T10:26:25</time>
      </trkpt>
      <trkpt lat="43.51111" lon="5.76825">
        <ele>512.5</ele>
        <time>2012-05-06T10:27:24</time>
      </trkpt>
      <trkpt lat="43.51121" lon="5.76868">
        <ele>513</ele>
        <time>2012-05-06T10:28:00</time>
      </trkpt>
      <trkpt lat="43.51122" lon="5.76957">
        <ele>494</ele>
        <time>2012-05-06T10:32:50</time>
      </trkpt>
      <trkpt lat="43.51143" lon="5.76931">
        <ele>497</ele>
        <time>2012-05-06T10:38:30</time>
      </trkpt>
      <trkpt lat="43.5117" lon="5.76894">
        <ele>500</ele>
        <time>2012-05-06T10:39:11</time>
      </trkpt>
      <trkpt lat="43.51199" lon="5.76856">
        <ele>500.5</ele>
        <time>2012-05-06T10:39:45</time>
      </trkpt>
      <trkpt lat="43.51226" lon="5.76823">
        <ele>502</ele>
        <time>2012-05-06T10:40:15</time>
      </trkpt>
      <trkpt lat="43.51264" lon="5.7677">
        <ele>509</ele>
        <time>2012-05-06T10:41:07</time>
      </trkpt>
      <trkpt lat="43.51281" lon="5.76747">
        <ele>509</ele>
        <time>2012-05-06T10:41:27</time>
      </trkpt>
      <trkpt lat="43.51295" lon="5.76729">
        <ele>507</ele>
        <time>2012-05-06T10:41:43</time>
      </trkpt>
      <trkpt lat="43.51331" lon="5.76683">
        <ele>508.5</ele>
        <time>2012-05-06T10:42:24</time>
      </trkpt>
      <trkpt lat="43.51349" lon="5.76662">
        <ele>509.5</ele>
        <time>2012-05-06T10:42:45</time>
      </trkpt>
      <trkpt lat="43.51366" lon="5.76642">
        <ele>512.5</ele>
        <time>2012-05-06T10:43:03</time>
      </trkpt>
      <trkpt lat="43.51406" lon="5.76595">
        <ele>515</ele>
        <time>2012-05-06T10:43:49</time>
      </trkpt>
      <trkpt lat="43.51428" lon="5.76565">
        <ele>514.5</ele>
        <time>2012-05-06T10:44:15</time>
      </trkpt>
      <trkpt lat="43.51452" lon="5.76535">
        <ele>515</ele>
        <time>2012-05-06T10:44:42</time>
      </trkpt>
      <trkpt lat="43.5147" lon="5.76511">
        <ele>519</ele>
        <time>2012-05-06T10:45:04</time>
      </trkpt>
      <trkpt lat="43.51493" lon="5.76481">
        <ele>521</ele>
        <time>2012-05-06T10:45:30</time>
      </trkpt>
      <trkpt lat="43.51517" lon="5.76453">
        <ele>518</ele>
        <time>2012-05-06T10:45:57</time>
      </trkpt>
      <trkpt lat="43.51542" lon="5.7642">
        <ele>518</ele>
        <time>2012-05-06T10:46:25</time>
      </trkpt>
      <trkpt lat="43.51554" lon="5.76404">
        <ele>518</ele>
        <time>2012-05-06T10:46:39</time>
      </trkpt>
      <trkpt lat="43.51578" lon="5.76375">
        <ele>518.5</ele>
        <time>2012-05-06T10:47:08</time>
      </trkpt>
      <trkpt lat="43.51608" lon="5.76341">
        <ele>517.5</ele>
        <time>2012-05-06T10:47:41</time>
      </trkpt>
      <trkpt lat="43.5162" lon="5.76327">
        <ele>517</ele>
        <time>2012-05-06T10:47:54</time>
      </trkpt>
      <trkpt lat="43.51643" lon="5.76298">
        <ele>518</ele>
        <time>2012-05-06T10:48:20</time>
      </trkpt>
      <trkpt lat="43.5166" lon="5.76277">
        <ele>516</ele>
        <time>2012-05-06T10:48:38</time>
      </trkpt>
      <trkpt lat="43.51678" lon="5.76254">
        <ele>517</ele>
        <time>2012-05-06T10:48:58</time>
      </trkpt>
      <trkpt lat="43.51699" lon="5.76224">
        <ele>516.5</ele>
        <time>2012-05-06T10:49:23</time>
      </trkpt>
      <trkpt lat="43.51711" lon="5.76208">
        <ele>515.5</ele>
        <time>2012-05-06T10:49:36</time>
      </trkpt>
      <trkpt lat="43.51742" lon="5.76167">
        <ele>515</ele>
        <time>2012-05-06T10:50:10</time>
      </trkpt>
      <trkpt lat="43.51752" lon="5.76148">
        <ele>515</ele>
        <time>2012-05-06T10:50:24</time>
      </trkpt>
      <trkpt lat="43.51767" lon="5.76117">
        <ele>515.5</ele>
        <time>2012-05-06T10:50:47</time>
      </trkpt>
      <trkpt lat="43.51785" lon="5.76082">
        <ele>518</ele>
        <time>2012-05-06T10:51:14</time>
      </trkpt>
      <trkpt lat="43.51795" lon="5.76065">
        <ele>518</ele>
        <time>2012-05-06T10:51:27</time>
      </trkpt>
      <trkpt lat="43.51814" lon="5.76033">
        <ele>517</ele>
        <time>2012-05-06T10:51:52</time>
      </trkpt>
      <trkpt lat="43.51829" lon="5.76003">
        <ele>515.5</ele>
        <time>2012-05-06T10:52:13</time>
      </trkpt>
      <trkpt lat="43.51844" lon="5.75977">
        <ele>516.5</ele>
        <time>2012-05-06T10:52:35</time>
      </trkpt>
      <trkpt lat="43.51862" lon="5.75941">
        <ele>515</ele>
        <time>2012-05-06T10:53:02</time>
      </trkpt>
      <trkpt lat="43.51881" lon="5.75905">
        <ele>515.5</ele>
        <time>2012-05-06T10:53:30</time>
      </trkpt>
      <trkpt lat="43.51894" lon="5.75882">
        <ele>516.5</ele>
        <time>2012-05-06T10:53:47</time>
      </trkpt>
      <trkpt lat="43.51902" lon="5.75865">
        <ele>517.5</ele>
        <time>2012-05-06T10:54:00</time>
      </trkpt>
      <trkpt lat="43.51922" lon="5.75829">
        <ele>517.5</ele>
        <time>2012-05-06T10:54:26</time>
      </trkpt>
      <trkpt lat="43.51941" lon="5.75795">
        <ele>518</ele>
        <time>2012-05-06T10:54:52</time>
      </trkpt>
      <trkpt lat="43.5195" lon="5.75777">
        <ele>515</ele>
        <time>2012-05-06T10:55:06</time>
      </trkpt>
      <trkpt lat="43.51979" lon="5.75724">
        <ele>516.5</ele>
        <time>2012-05-06T10:55:46</time>
      </trkpt>
      <trkpt lat="43.52016" lon="5.75651">
        <ele>519</ele>
        <time>2012-05-06T10:56:39</time>
      </trkpt>
      <trkpt lat="43.5204" lon="5.75604">
        <ele>522</ele>
        <time>2012-05-06T10:57:11</time>
      </trkpt>
      <trkpt lat="43.52081" lon="5.75528">
        <ele>518.5</ele>
        <time>2012-05-06T10:58:04</time>
      </trkpt>
      <trkpt lat="43.52091" lon="5.75505">
        <ele>521</ele>
        <time>2012-05-06T10:58:20</time>
      </trkpt>
      <trkpt lat="43.52116" lon="5.75454">
        <ele>521</ele>
        <time>2012-05-06T10:58:56</time>
      </trkpt>
      <trkpt lat="43.52131" lon="5.75426">
        <ele>521</ele>
        <time>2012-05-06T10:59:16</time>
      </trkpt>
      <trkpt lat="43.5214" lon="5.75406">
        <ele>521.5</ele>
        <time>2012-05-06T10:59:31</time>
      </trkpt>
      <trkpt lat="43.52153" lon="5.75376">
        <ele>522</ele>
        <time>2012-05-06T10:59:52</time>
      </trkpt>
      <trkpt lat="43.52164" lon="5.75358">
        <ele>522.5</ele>
        <time>2012-05-06T11:00:05</time>
      </trkpt>
      <trkpt lat="43.52197" lon="5.75281">
        <ele>525.5</ele>
        <time>2012-05-06T11:00:56</time>
      </trkpt>
      <trkpt lat="43.52218" lon="5.75249">
        <ele>524.5</ele>
        <time>2012-05-06T11:01:22</time>
      </trkpt>
      <trkpt lat="43.52244" lon="5.75256">
        <ele>523.5</ele>
        <time>2012-05-06T11:02:32</time>
      </trkpt>
      <trkpt lat="43.52271" lon="5.75272">
        <ele>530.5</ele>
        <time>2012-05-06T11:02:57</time>
      </trkpt>
      <trkpt lat="43.52317" lon="5.75286">
        <ele>533</ele>
        <time>2012-05-06T11:03:37</time>
      </trkpt>
      <trkpt lat="43.52352" lon="5.75296">
        <ele>535</ele>
        <time>2012-05-06T11:04:09</time>
      </trkpt>
      <trkpt lat="43.52396" lon="5.75316">
        <ele>539</ele>
        <time>2012-05-06T11:04:48</time>
      </trkpt>
      <trkpt lat="43.52421" lon="5.75327">
        <ele>535.5</ele>
        <time>2012-05-06T11:05:09</time>
      </trkpt>
      <trkpt lat="43.5245" lon="5.75339">
        <ele>534</ele>
        <time>2012-05-06T11:05:33</time>
      </trkpt>
      <trkpt lat="43.52484" lon="5.75358">
        <ele>533</ele>
        <time>2012-05-06T11:06:00</time>
      </trkpt>
      <trkpt lat="43.52516" lon="5.75378">
        <ele>534</ele>
        <time>2012-05-06T11:06:29</time>
      </trkpt>
      <trkpt lat="43.52556" lon="5.75415">
        <ele>535</ele>
        <time>2012-05-06T11:07:06</time>
      </trkpt>
      <trkpt lat="43.5257" lon="5.75437">
        <ele>535.5</ele>
        <time>2012-05-06T11:07:22</time>
      </trkpt>
      <trkpt lat="43.52588" lon="5.75464">
        <ele>537.5</ele>
        <time>2012-05-06T11:07:42</time>
      </trkpt>
      <trkpt lat="43.52633" lon="5.75573">
        <ele>537.5</ele>
        <time>2012-05-06T11:08:52</time>
      </trkpt>
      <trkpt lat="43.52643" lon="5.75623">
        <ele>530</ele>
        <time>2012-05-06T11:09:21</time>
      </trkpt>
      <trkpt lat="43.52665" lon="5.75704">
        <ele>537.5</ele>
        <time>2012-05-06T11:10:12</time>
      </trkpt>
      <trkpt lat="43.52697" lon="5.75746">
        <ele>542</ele>
        <time>2012-05-06T11:10:50</time>
      </trkpt>
      <trkpt lat="43.5272" lon="5.75766">
        <ele>545</ele>
        <time>2012-05-06T11:11:13</time>
      </trkpt>
      <trkpt lat="43.52752" lon="5.75798">
        <ele>550</ele>
        <time>2012-05-06T11:11:47</time>
      </trkpt>
      <trkpt lat="43.52778" lon="5.7583">
        <ele>548.5</ele>
        <time>2012-05-06T11:12:12</time>
      </trkpt>
      <trkpt lat="43.528" lon="5.75857">
        <ele>553.5</ele>
        <time>2012-05-06T11:12:36</time>
      </trkpt>
      <trkpt lat="43.52832" lon="5.75886">
        <ele>549</ele>
        <time>2012-05-06T11:13:06</time>
      </trkpt>
      <trkpt lat="43.52857" lon="5.75909">
        <ele>548.5</ele>
        <time>2012-05-06T11:13:29</time>
      </trkpt>
      <trkpt lat="43.52917" lon="5.75919">
        <ele>535.5</ele>
        <time>2012-05-06T11:15:33</time>
      </trkpt>
      <trkpt lat="43.52925" lon="5.75825">
        <ele>546</ele>
        <time>2012-05-06T11:16:44</time>
      </trkpt>
      <trkpt lat="43.52939" lon="5.75776">
        <ele>543</ele>
        <time>2012-05-06T11:17:16</time>
      </trkpt>
      <trkpt lat="43.52944" lon="5.75738">
        <ele>546</ele>
        <time>2012-05-06T11:17:43</time>
      </trkpt>
      <trkpt lat="43.52968" lon="5.75648">
        <ele>526.5</ele>
        <time>2012-05-06T11:20:22</time>
      </trkpt>
      <trkpt lat="43.52997" lon="5.75578">
        <ele>531</ele>
        <time>2012-05-06T11:25:27</time>
      </trkpt>
      <trkpt lat="43.53011" lon="5.75544">
        <ele>539.5</ele>
        <time>2012-05-06T11:25:53</time>
      </trkpt>
      <trkpt lat="43.53022" lon="5.75509">
        <ele>546.5</ele>
        <time>2012-05-06T11:26:20</time>
      </trkpt>
      <trkpt lat="43.53047" lon="5.75456">
        <ele>547.5</ele>
        <time>2012-05-06T11:26:57</time>
      </trkpt>
      <trkpt lat="43.53064" lon="5.75423">
        <ele>544</ele>
        <time>2012-05-06T11:27:23</time>
      </trkpt>
      <trkpt lat="43.53086" lon="5.75388">
        <ele>545</ele>
        <time>2012-05-06T11:27:48</time>
      </trkpt>
      <trkpt lat="43.53135" lon="5.75314">
        <ele>550.5</ele>
        <time>2012-05-06T11:28:50</time>
      </trkpt>
      <trkpt lat="43.5317" lon="5.7526">
        <ele>551</ele>
        <time>2012-05-06T11:29:31</time>
      </trkpt>
      <trkpt lat="43.53199" lon="5.75214">
        <ele>552</ele>
        <time>2012-05-06T11:30:05</time>
      </trkpt>
      <trkpt lat="43.5322" lon="5.75176">
        <ele>553</ele>
        <time>2012-05-06T11:30:35</time>
      </trkpt>
      <trkpt lat="43.5324" lon="5.75146">
        <ele>546</ele>
        <time>2012-05-06T11:31:00</time>
      </trkpt>
      <trkpt lat="43.53276" lon="5.75082">
        <ele>538.5</ele>
        <time>2012-05-06T11:31:55</time>
      </trkpt>
      <trkpt lat="43.53319" lon="5.75">
        <ele>536.5</ele>
        <time>2012-05-06T11:32:57</time>
      </trkpt>
      <trkpt lat="43.53343" lon="5.74972">
        <ele>543.5</ele>
        <time>2012-05-06T11:33:22</time>
      </trkpt>
      <trkpt lat="43.53373" lon="5.74949">
        <ele>547</ele>
        <time>2012-05-06T11:33:51</time>
      </trkpt>
      <trkpt lat="43.53408" lon="5.74941">
        <ele>553</ele>
        <time>2012-05-06T11:34:22</time>
      </trkpt>
      <trkpt lat="43.53442" lon="5.74942">
        <ele>551.5</ele>
        <time>2012-05-06T11:34:48</time>
      </trkpt>
      <trkpt lat="43.53506" lon="5.74921">
        <ele>553.5</ele>
        <time>2012-05-06T11:35:44</time>
      </trkpt>
      <trkpt lat="43.5354" lon="5.74913">
        <ele>550.5</ele>
        <time>2012-05-06T11:36:16</time>
      </trkpt>
      <trkpt lat="43.53592" lon="5.74807">
        <ele>544.5</ele>
        <time>2012-05-06T11:38:26</time>
      </trkpt>
      <trkpt lat="43.53605" lon="5.7477">
        <ele>548</ele>
        <time>2012-05-06T11:38:51</time>
      </trkpt>
      <trkpt lat="43.53653" lon="5.7469">
        <ele>548.5</ele>
        <time>2012-05-06T11:39:54</time>
      </trkpt>
      <trkpt lat="43.53677" lon="5.74656">
        <ele>549</ele>
        <time>2012-05-06T11:40:25</time>
      </trkpt>
      <trkpt lat="43.53696" lon="5.74626">
        <ele>554</ele>
        <time>2012-05-06T11:40:51</time>
      </trkpt>
      <trkpt lat="43.53706" lon="5.74607">
        <ele>553.5</ele>
        <time>2012-05-06T11:41:08</time>
      </trkpt>
      <trkpt lat="43.53722" lon="5.74585">
        <ele>553</ele>
        <time>2012-05-06T11:41:29</time>
      </trkpt>
      <trkpt lat="43.53742" lon="5.74548">
        <ele>555.5</ele>
        <time>2012-05-06T11:41:57</time>
      </trkpt>
      <trkpt lat="43.53746" lon="5.74494">
        <ele>549.5</ele>
        <time>2012-05-06T11:42:39</time>
      </trkpt>
      <trkpt lat="43.5372" lon="5.74432">
        <ele>548</ele>
        <time>2012-05-06T11:43:28</time>
      </trkpt>
      <trkpt lat="43.53737" lon="5.74379">
        <ele>544</ele>
        <time>2012-05-06T11:44:05</time>
      </trkpt>
      <trkpt lat="43.53756" lon="5.74363">
        <ele>545.5</ele>
        <time>2012-05-06T11:44:23</time>
      </trkpt>
      <trkpt lat="43.5378" lon="5.74318">
        <ele>549</ele>
        <time>2012-05-06T11:45:11</time>
      </trkpt>
      <trkpt lat="43.53796" lon="5.74278">
        <ele>552.5</ele>
        <time>2012-05-06T11:45:44</time>
      </trkpt>
      <trkpt lat="43.53802" lon="5.74253">
        <ele>554</ele>
        <time>2012-05-06T11:46:04</time>
      </trkpt>
      <trkpt lat="43.53811" lon="5.74226">
        <ele>556</ele>
        <time>2012-05-06T11:46:27</time>
      </trkpt>
      <trkpt lat="43.53826" lon="5.74204">
        <ele>562</ele>
        <time>2012-05-06T11:46:50</time>
      </trkpt>
      <trkpt lat="43.53838" lon="5.74188">
        <ele>565</ele>
        <time>2012-05-06T11:47:06</time>
      </trkpt>
      <trkpt lat="43.53866" lon="5.74138">
        <ele>571</ele>
        <time>2012-05-06T11:47:53</time>
      </trkpt>
      <trkpt lat="43.53872" lon="5.74114">
        <ele>574</ele>
        <time>2012-05-06T11:48:08</time>
      </trkpt>
      <trkpt lat="43.53875" lon="5.74073">
        <ele>574</ele>
        <time>2012-05-06T11:48:50</time>
      </trkpt>
      <trkpt lat="43.53877" lon="5.74047">
        <ele>574.5</ele>
        <time>2012-05-06T11:49:08</time>
      </trkpt>
      <trkpt lat="43.53877" lon="5.73996">
        <ele>572.5</ele>
        <time>2012-05-06T11:49:48</time>
      </trkpt>
      <trkpt lat="43.53914" lon="5.73979">
        <ele>574.5</ele>
        <time>2012-05-06T11:51:38</time>
      </trkpt>
      <trkpt lat="43.53929" lon="5.73977">
        <ele>575.5</ele>
        <time>2012-05-06T11:51:51</time>
      </trkpt>
      <trkpt lat="43.53999" lon="5.73986">
        <ele>586</ele>
        <time>2012-05-06T11:52:51</time>
      </trkpt>
      <trkpt lat="43.54023" lon="5.73989">
        <ele>587</ele>
        <time>2012-05-06T11:53:12</time>
      </trkpt>
      <trkpt lat="43.54044" lon="5.73984">
        <ele>588.5</ele>
        <time>2012-05-06T11:53:31</time>
      </trkpt>
      <trkpt lat="43.54079" lon="5.73986">
        <ele>587.5</ele>
        <time>2012-05-06T11:54:02</time>
      </trkpt>
      <trkpt lat="43.54082" lon="5.7401">
        <ele>587.5</ele>
        <time>2012-05-06T11:54:20</time>
      </trkpt>
      <trkpt lat="43.54057" lon="5.74054">
        <ele>593.5</ele>
        <time>2012-05-06T11:54:56</time>
      </trkpt>
      <trkpt lat="43.54047" lon="5.7408">
        <ele>593.5</ele>
        <time>2012-05-06T11:55:14</time>
      </trkpt>
      <trkpt lat="43.54041" lon="5.7411">
        <ele>595</ele>
        <time>2012-05-06T11:55:33</time>
      </trkpt>
      <trkpt lat="43.54049" lon="5.74153">
        <ele>595</ele>
        <time>2012-05-06T11:56:01</time>
      </trkpt>
      <trkpt lat="43.54075" lon="5.74191">
        <ele>606</ele>
        <time>2012-05-06T11:56:49</time>
      </trkpt>
      <trkpt lat="43.54102" lon="5.74171">
        <ele>610</ele>
        <time>2012-05-06T11:57:20</time>
      </trkpt>
      <trkpt lat="43.54121" lon="5.74157">
        <ele>614</ele>
        <time>2012-05-06T11:57:39</time>
      </trkpt>
      <trkpt lat="43.54155" lon="5.74148">
        <ele>621.5</ele>
        <time>2012-05-06T11:58:17</time>
      </trkpt>
      <trkpt lat="43.54182" lon="5.74158">
        <ele>624.5</ele>
        <time>2012-05-06T11:58:45</time>
      </trkpt>
      <trkpt lat="43.54203" lon="5.74172">
        <ele>627</ele>
        <time>2012-05-06T11:59:27</time>
      </trkpt>
      <trkpt lat="43.54221" lon="5.74181">
        <ele>631</ele>
        <time>2012-05-06T11:59:47</time>
      </trkpt>
      <trkpt lat="43.54252" lon="5.74192">
        <ele>637</ele>
        <time>2012-05-06T12:00:24</time>
      </trkpt>
      <trkpt lat="43.54279" lon="5.74196">
        <ele>639.5</ele>
        <time>2012-05-06T12:02:16</time>
      </trkpt>
      <trkpt lat="43.54298" lon="5.74208">
        <ele>641.5</ele>
        <time>2012-05-06T12:02:45</time>
      </trkpt>
      <trkpt lat="43.54336" lon="5.74227">
        <ele>651.5</ele>
        <time>2012-05-06T12:03:38</time>
      </trkpt>
      <trkpt lat="43.5437" lon="5.74242">
        <ele>655.5</ele>
        <time>2012-05-06T12:04:23</time>
      </trkpt>
      <trkpt lat="43.54396" lon="5.74241">
        <ele>659.5</ele>
        <time>2012-05-06T12:04:55</time>
      </trkpt>
      <trkpt lat="43.54442" lon="5.74229">
        <ele>665</ele>
        <time>2012-05-06T12:06:16</time>
      </trkpt>
      <trkpt lat="43.54464" lon="5.74218">
        <ele>666</ele>
        <time>2012-05-06T12:06:55</time>
      </trkpt>
      <trkpt lat="43.54485" lon="5.74245">
        <ele>664</ele>
        <time>2012-05-06T12:08:34</time>
      </trkpt>
      <trkpt lat="43.54478" lon="5.74273">
        <ele>660.5</ele>
        <time>2012-05-06T12:12:42</time>
      </trkpt>
      <trkpt lat="43.54482" lon="5.74242">
        <ele>661</ele>
        <time>2012-05-06T12:38:21</time>
      </trkpt>
      <trkpt lat="43.54505" lon="5.74255">
        <ele>664</ele>
        <time>2012-05-06T13:00:04</time>
      </trkpt>
      <trkpt lat="43.54474" lon="5.74215">
        <ele>665</ele>
        <time>2012-05-06T13:01:43</time>
      </trkpt>
      <trkpt lat="43.54456" lon="5.74213">
        <ele>665.5</ele>
        <time>2012-05-06T13:02:41</time>
      </trkpt>
      <trkpt lat="43.54441" lon="5.74224">
        <ele>664.5</ele>
        <time>2012-05-06T13:03:29</time>
      </trkpt>
      <trkpt lat="43.54426" lon="5.74217">
        <ele>665</ele>
        <time>2012-05-06T13:04:09</time>
      </trkpt>
      <trkpt lat="43.54415" lon="5.74192">
        <ele>660.5</ele>
        <time>2012-05-06T13:05:57</time>
      </trkpt>
      <trkpt lat="43.54416" lon="5.74164">
        <ele>651.5</ele>
        <time>2012-05-06T13:07:34</time>
      </trkpt>
      <trkpt lat="43.54404" lon="5.74137">
        <ele>639.5</ele>
        <time>2012-05-06T13:10:25</time>
      </trkpt>
      <trkpt lat="43.54387" lon="5.74117">
        <ele>628.5</ele>
        <time>2012-05-06T13:13:31</time>
      </trkpt>
      <trkpt lat="43.54367" lon="5.74032">
        <ele>611.5</ele>
        <time>2012-05-06T13:17:39</time>
      </trkpt>
      <trkpt lat="43.54356" lon="5.73957">
        <ele>594.5</ele>
        <time>2012-05-06T13:20:29</time>
      </trkpt>
      <trkpt lat="43.54356" lon="5.73893">
        <ele>586.5</ele>
        <time>2012-05-06T13:22:44</time>
      </trkpt>
      <trkpt lat="43.54356" lon="5.73838">
        <ele>568.5</ele>
        <time>2012-05-06T13:24:27</time>
      </trkpt>
      <trkpt lat="43.5435" lon="5.73816">
        <ele>564</ele>
        <time>2012-05-06T13:25:04</time>
      </trkpt>
      <trkpt lat="43.54338" lon="5.7379">
        <ele>559.5</ele>
        <time>2012-05-06T13:25:58</time>
      </trkpt>
      <trkpt lat="43.54346" lon="5.73762">
        <ele>565</ele>
        <time>2012-05-06T13:26:57</time>
      </trkpt>
      <trkpt lat="43.54365" lon="5.7375">
        <ele>564</ele>
        <time>2012-05-06T13:27:26</time>
      </trkpt>
      <trkpt lat="43.54409" lon="5.73712">
        <ele>553.5</ele>
        <time>2012-05-06T13:29:13</time>
      </trkpt>
      <trkpt lat="43.54435" lon="5.73677">
        <ele>545.5</ele>
        <time>2012-05-06T13:30:23</time>
      </trkpt>
      <trkpt lat="43.54454" lon="5.7368">
        <ele>547</ele>
        <time>2012-05-06T13:30:54</time>
      </trkpt>
      <trkpt lat="43.54478" lon="5.73694">
        <ele>547</ele>
        <time>2012-05-06T13:31:31</time>
      </trkpt>
      <trkpt lat="43.54527" lon="5.73743">
        <ele>537</ele>
        <time>2012-05-06T13:32:50</time>
      </trkpt>
      <trkpt lat="43.54546" lon="5.73765">
        <ele>534</ele>
        <time>2012-05-06T13:33:17</time>
      </trkpt>
      <trkpt lat="43.54563" lon="5.73775">
        <ele>533.5</ele>
        <time>2012-05-06T13:33:44</time>
      </trkpt>
      <trkpt lat="43.54591" lon="5.73776">
        <ele>535.5</ele>
        <time>2012-05-06T13:34:20</time>
      </trkpt>
      <trkpt lat="43.54628" lon="5.73786">
        <ele>540</ele>
        <time>2012-05-06T13:35:05</time>
      </trkpt>
      <trkpt lat="43.54657" lon="5.73786">
        <ele>543</ele>
        <time>2012-05-06T13:35:52</time>
      </trkpt>
      <trkpt lat="43.54685" lon="5.7379">
        <ele>537</ele>
        <time>2012-05-06T13:36:36</time>
      </trkpt>
      <trkpt lat="43.54725" lon="5.73777">
        <ele>539.5</ele>
        <time>2012-05-06T13:37:23</time>
      </trkpt>
      <trkpt lat="43.54753" lon="5.73766">
        <ele>541.5</ele>
        <time>2012-05-06T13:37:52</time>
      </trkpt>
      <trkpt lat="43.54784" lon="5.73771">
        <ele>536.5</ele>
        <time>2012-05-06T13:38:30</time>
      </trkpt>
      <trkpt lat="43.54844" lon="5.73779">
        <ele>541.5</ele>
        <time>2012-05-06T13:39:59</time>
      </trkpt>
      <trkpt lat="43.54853" lon="5.7388">
        <ele>541.5</ele>
        <time>2012-05-06T13:41:32</time>
      </trkpt>
      <trkpt lat="43.54846" lon="5.73923">
        <ele>550.5</ele>
        <time>2012-05-06T13:42:06</time>
      </trkpt>
      <trkpt lat="43.54841" lon="5.73962">
        <ele>551</ele>
        <time>2012-05-06T13:42:36</time>
      </trkpt>
      <trkpt lat="43.5483" lon="5.74003">
        <ele>555.5</ele>
        <time>2012-05-06T13:43:11</time>
      </trkpt>
      <trkpt lat="43.54824" lon="5.74075">
        <ele>551</ele>
        <time>2012-05-06T13:44:04</time>
      </trkpt>
      <trkpt lat="43.54829" lon="5.74127">
        <ele>552.5</ele>
        <time>2012-05-06T13:44:45</time>
      </trkpt>
      <trkpt lat="43.54836" lon="5.74185">
        <ele>551</ele>
        <time>2012-05-06T13:45:28</time>
      </trkpt>
      <trkpt lat="43.54827" lon="5.74232">
        <ele>552.5</ele>
        <time>2012-05-06T13:45:59</time>
      </trkpt>
      <trkpt lat="43.54816" lon="5.7432">
        <ele>545.5</ele>
        <time>2012-05-06T13:47:45</time>
      </trkpt>
      <trkpt lat="43.54811" lon="5.74381">
        <ele>555.5</ele>
        <time>2012-05-06T13:48:37</time>
      </trkpt>
      <trkpt lat="43.54807" lon="5.74449">
        <ele>539.5</ele>
        <time>2012-05-06T13:50:33</time>
      </trkpt>
      <trkpt lat="43.54789" lon="5.74506">
        <ele>537</ele>
        <time>2012-05-06T13:52:36</time>
      </trkpt>
      <trkpt lat="43.54778" lon="5.74535">
        <ele>539.5</ele>
        <time>2012-05-06T13:53:01</time>
      </trkpt>
      <trkpt lat="43.54756" lon="5.74577">
        <ele>544.5</ele>
        <time>2012-05-06T13:53:41</time>
      </trkpt>
      <trkpt lat="43.54724" lon="5.74635">
        <ele>538</ele>
        <time>2012-05-06T13:54:30</time>
      </trkpt>
      <trkpt lat="43.54704" lon="5.74672">
        <ele>527</ele>
        <time>2012-05-06T13:54:59</time>
      </trkpt>
      <trkpt lat="43.54685" lon="5.74702">
        <ele>534.5</ele>
        <time>2012-05-06T13:55:22</time>
      </trkpt>
      <trkpt lat="43.54636" lon="5.74788">
        <ele>542.5</ele>
        <time>2012-05-06T13:56:28</time>
      </trkpt>
      <trkpt lat="43.54603" lon="5.7485">
        <ele>553</ele>
        <time>2012-05-06T13:57:20</time>
      </trkpt>
      <trkpt lat="43.54585" lon="5.74892">
        <ele>557</ele>
        <time>2012-05-06T13:57:57</time>
      </trkpt>
      <trkpt lat="43.54557" lon="5.74938">
        <ele>554.5</ele>
        <time>2012-05-06T13:58:35</time>
      </trkpt>
      <trkpt lat="43.54518" lon="5.74987">
        <ele>551.5</ele>
        <time>2012-05-06T13:59:19</time>
      </trkpt>
      <trkpt lat="43.54499" lon="5.75009">
        <ele>553</ele>
        <time>2012-05-06T13:59:44</time>
      </trkpt>
      <trkpt lat="43.54473" lon="5.75032">
        <ele>560.5</ele>
        <time>2012-05-06T14:00:13</time>
      </trkpt>
      <trkpt lat="43.54448" lon="5.75055">
        <ele>566.5</ele>
        <time>2012-05-06T14:00:40</time>
      </trkpt>
      <trkpt lat="43.5435" lon="5.75175">
        <ele>540.5</ele>
        <time>2012-05-06T14:02:30</time>
      </trkpt>
      <trkpt lat="43.54306" lon="5.75215">
        <ele>537</ele>
        <time>2012-05-06T14:03:22</time>
      </trkpt>
      <trkpt lat="43.54271" lon="5.75238">
        <ele>535.5</ele>
        <time>2012-05-06T14:03:54</time>
      </trkpt>
      <trkpt lat="43.54253" lon="5.75252">
        <ele>536</ele>
        <time>2012-05-06T14:04:12</time>
      </trkpt>
      <trkpt lat="43.54217" lon="5.75267">
        <ele>540.5</ele>
        <time>2012-05-06T14:04:47</time>
      </trkpt>
      <trkpt lat="43.54173" lon="5.75274">
        <ele>538.5</ele>
        <time>2012-05-06T14:05:26</time>
      </trkpt>
      <trkpt lat="43.54154" lon="5.75279">
        <ele>538.5</ele>
        <time>2012-05-06T14:05:44</time>
      </trkpt>
      <trkpt lat="43.54132" lon="5.75279">
        <ele>541.5</ele>
        <time>2012-05-06T14:06:08</time>
      </trkpt>
      <trkpt lat="43.54089" lon="5.75259">
        <ele>547.5</ele>
        <time>2012-05-06T14:07:05</time>
      </trkpt>
      <trkpt lat="43.5406" lon="5.75235">
        <ele>551.5</ele>
        <time>2012-05-06T14:07:40</time>
      </trkpt>
      <trkpt lat="43.54024" lon="5.75218">
        <ele>559</ele>
        <time>2012-05-06T14:08:17</time>
      </trkpt>
      <trkpt lat="43.53992" lon="5.75197">
        <ele>576.5</ele>
        <time>2012-05-06T14:08:52</time>
      </trkpt>
      <trkpt lat="43.53972" lon="5.75177">
        <ele>585.5</ele>
        <time>2012-05-06T14:09:18</time>
      </trkpt>
      <trkpt lat="43.5394" lon="5.75141">
        <ele>572.5</ele>
        <time>2012-05-06T14:10:01</time>
      </trkpt>
      <trkpt lat="43.53912" lon="5.75131">
        <ele>573</ele>
        <time>2012-05-06T14:10:40</time>
      </trkpt>
      <trkpt lat="43.53883" lon="5.75126">
        <ele>573.5</ele>
        <time>2012-05-06T14:11:19</time>
      </trkpt>
      <trkpt lat="43.53854" lon="5.75121">
        <ele>580.5</ele>
        <time>2012-05-06T14:12:00</time>
      </trkpt>
      <trkpt lat="43.53825" lon="5.75093">
        <ele>578</ele>
        <time>2012-05-06T14:14:50</time>
      </trkpt>
      <trkpt lat="43.53781" lon="5.75063">
        <ele>582.5</ele>
        <time>2012-05-06T14:17:25</time>
      </trkpt>
      <trkpt lat="43.53753" lon="5.75019">
        <ele>582</ele>
        <time>2012-05-06T14:18:12</time>
      </trkpt>
      <trkpt lat="43.53735" lon="5.74975">
        <ele>576</ele>
        <time>2012-05-06T14:18:49</time>
      </trkpt>
      <trkpt lat="43.53724" lon="5.7495">
        <ele>571.5</ele>
        <time>2012-05-06T14:19:12</time>
      </trkpt>
      <trkpt lat="43.5368" lon="5.74939">
        <ele>575</ele>
        <time>2012-05-06T14:20:03</time>
      </trkpt>
      <trkpt lat="43.53651" lon="5.74938">
        <ele>575</ele>
        <time>2012-05-06T14:20:35</time>
      </trkpt>
      <trkpt lat="43.53585" lon="5.7494">
        <ele>566</ele>
        <time>2012-05-06T14:21:35</time>
      </trkpt>
      <trkpt lat="43.53552" lon="5.74937">
        <ele>567</ele>
        <time>2012-05-06T14:22:14</time>
      </trkpt>
      <trkpt lat="43.53509" lon="5.74939">
        <ele>556.5</ele>
        <time>2012-05-06T14:23:11</time>
      </trkpt>
      <trkpt lat="43.53457" lon="5.74953">
        <ele>556</ele>
        <time>2012-05-06T14:24:15</time>
      </trkpt>
      <trkpt lat="43.53425" lon="5.74952">
        <ele>554.5</ele>
        <time>2012-05-06T14:24:46</time>
      </trkpt>
      <trkpt lat="43.53366" lon="5.74944">
        <ele>557</ele>
        <time>2012-05-06T14:25:41</time>
      </trkpt>
      <trkpt lat="43.53317" lon="5.74932">
        <ele>558</ele>
        <time>2012-05-06T14:26:23</time>
      </trkpt>
      <trkpt lat="43.53276" lon="5.74918">
        <ele>561.5</ele>
        <time>2012-05-06T14:27:00</time>
      </trkpt>
      <trkpt lat="43.53225" lon="5.749">
        <ele>557</ele>
        <time>2012-05-06T14:27:41</time>
      </trkpt>
      <trkpt lat="43.53157" lon="5.74878">
        <ele>555.5</ele>
        <time>2012-05-06T14:28:38</time>
      </trkpt>
      <trkpt lat="43.53104" lon="5.74849">
        <ele>531</ele>
        <time>2012-05-06T14:29:27</time>
      </trkpt>
      <trkpt lat="43.5307" lon="5.74781">
        <ele>530</ele>
        <time>2012-05-06T14:30:32</time>
      </trkpt>
      <trkpt lat="43.52978" lon="5.74693">
        <ele>517</ele>
        <time>2012-05-06T14:32:21</time>
      </trkpt>
      <trkpt lat="43.52939" lon="5.74651">
        <ele>507.5</ele>
        <time>2012-05-06T14:33:13</time>
      </trkpt>
      <trkpt lat="43.52887" lon="5.74619">
        <ele>513</ele>
        <time>2012-05-06T14:34:46</time>
      </trkpt>
      <trkpt lat="43.52822" lon="5.74556">
        <ele>514.5</ele>
        <time>2012-05-06T14:40:24</time>
      </trkpt>
      <trkpt lat="43.52795" lon="5.74527">
        <ele>511.5</ele>
        <time>2012-05-06T14:41:11</time>
      </trkpt>
      <trkpt lat="43.52762" lon="5.74487">
        <ele>510.5</ele>
        <time>2012-05-06T14:41:50</time>
      </trkpt>
      <trkpt lat="43.52754" lon="5.74449">
        <ele>506</ele>
        <time>2012-05-06T14:42:23</time>
      </trkpt>
      <trkpt lat="43.52768" lon="5.74391">
        <ele>503</ele>
        <time>2012-05-06T14:43:06</time>
      </trkpt>
      <trkpt lat="43.52786" lon="5.74341">
        <ele>497</ele>
        <time>2012-05-06T14:43:44</time>
      </trkpt>
      <trkpt lat="43.52803" lon="5.74313">
        <ele>495.5</ele>
        <time>2012-05-06T14:44:05</time>
      </trkpt>
      <trkpt lat="43.52824" lon="5.74275">
        <ele>497</ele>
        <time>2012-05-06T14:44:36</time>
      </trkpt>
      <trkpt lat="43.52835" lon="5.74246">
        <ele>501.5</ele>
        <time>2012-05-06T14:44:57</time>
      </trkpt>
      <trkpt lat="43.52843" lon="5.74197">
        <ele>503.5</ele>
        <time>2012-05-06T14:45:42</time>
      </trkpt>
      <trkpt lat="43.52834" lon="5.74113">
        <ele>506</ele>
        <time>2012-05-06T14:46:48</time>
      </trkpt>
      <trkpt lat="43.52788" lon="5.74064">
        <ele>500.5</ele>
        <time>2012-05-06T14:47:38</time>
      </trkpt>
      <trkpt lat="43.52732" lon="5.74059">
        <ele>479</ele>
        <time>2012-05-06T14:53:55</time>
      </trkpt>
      <trkpt lat="43.52692" lon="5.74086">
        <ele>492.5</ele>
        <time>2012-05-06T15:07:08</time>
      </trkpt>
      <trkpt lat="43.52676" lon="5.74107">
        <ele>493.5</ele>
        <time>2012-05-06T15:09:01</time>
      </trkpt>
      <trkpt lat="43.52643" lon="5.7412">
        <ele>496.5</ele>
        <time>2012-05-06T15:09:49</time>
      </trkpt>
      <trkpt lat="43.52586" lon="5.74182">
        <ele>511.5</ele>
        <time>2012-05-06T15:11:41</time>
      </trkpt>
      <trkpt lat="43.52582" lon="5.74211">
        <ele>518</ele>
        <time>2012-05-06T15:12:08</time>
      </trkpt>
      <trkpt lat="43.52556" lon="5.74287">
        <ele>522</ele>
        <time>2012-05-06T15:13:51</time>
      </trkpt>
      <trkpt lat="43.52544" lon="5.74311">
        <ele>519.5</ele>
        <time>2012-05-06T15:14:18</time>
      </trkpt>
      <trkpt lat="43.52487" lon="5.74392">
        <ele>532.5</ele>
        <time>2012-05-06T15:15:49</time>
      </trkpt>
      <trkpt lat="43.52461" lon="5.74416">
        <ele>527.5</ele>
        <time>2012-05-06T15:16:16</time>
      </trkpt>
      <trkpt lat="43.52391" lon="5.74405">
        <ele>526.5</ele>
        <time>2012-05-06T15:17:19</time>
      </trkpt>
      <trkpt lat="43.52353" lon="5.74383">
        <ele>519</ele>
        <time>2012-05-06T15:17:52</time>
      </trkpt>
      <trkpt lat="43.5233" lon="5.7436">
        <ele>514.5</ele>
        <time>2012-05-06T15:18:20</time>
      </trkpt>
      <trkpt lat="43.52307" lon="5.74357">
        <ele>514</ele>
        <time>2012-05-06T15:18:50</time>
      </trkpt>
      <trkpt lat="43.52272" lon="5.74384">
        <ele>509</ele>
        <time>2012-05-06T15:19:36</time>
      </trkpt>
      <trkpt lat="43.52233" lon="5.74402">
        <ele>502.5</ele>
        <time>2012-05-06T15:20:25</time>
      </trkpt>
      <trkpt lat="43.52182" lon="5.74393">
        <ele>494</ele>
        <time>2012-05-06T15:21:25</time>
      </trkpt>
      <trkpt lat="43.52142" lon="5.74386">
        <ele>486.5</ele>
        <time>2012-05-06T15:23:07</time>
      </trkpt>
      <trkpt lat="43.52079" lon="5.74356">
        <ele>480</ele>
        <time>2012-05-06T15:24:28</time>
      </trkpt>
      <trkpt lat="43.52055" lon="5.74357">
        <ele>477</ele>
        <time>2012-05-06T15:24:54</time>
      </trkpt>
      <trkpt lat="43.52013" lon="5.74351">
        <ele>473</ele>
        <time>2012-05-06T15:25:40</time>
      </trkpt>
      <trkpt lat="43.51999" lon="5.74331">
        <ele>471.5</ele>
        <time>2012-05-06T15:26:01</time>
      </trkpt>
      <trkpt lat="43.5197" lon="5.74338">
        <ele>466</ele>
        <time>2012-05-06T15:26:40</time>
      </trkpt>
      <trkpt lat="43.51913" lon="5.74318">
        <ele>454</ele>
        <time>2012-05-06T15:28:13</time>
      </trkpt>
      <trkpt lat="43.51941" lon="5.74263">
        <ele>456</ele>
        <time>2012-05-06T15:29:04</time>
      </trkpt>
      <trkpt lat="43.51954" lon="5.74231">
        <ele>458</ele>
        <time>2012-05-06T15:29:30</time>
      </trkpt>
      <trkpt lat="43.51963" lon="5.7421">
        <ele>457</ele>
        <time>2012-05-06T15:30:16</time>
      </trkpt>
      <trkpt lat="43.51937" lon="5.74189">
        <ele>458</ele>
        <time>2012-05-06T15:30:50</time>
      </trkpt>
      <trkpt lat="43.51916" lon="5.74174">
        <ele>455</ele>
        <time>2012-05-06T15:31:18</time>
      </trkpt>
      <trkpt lat="43.51878" lon="5.74155">
        <ele>446.5</ele>
        <time>2012-05-06T15:32:03</time>
      </trkpt>
      <trkpt lat="43.51846" lon="5.74117">
        <ele>440</ele>
        <time>2012-05-06T15:32:58</time>
      </trkpt>
      <trkpt lat="43.51831" lon="5.74095">
        <ele>437.5</ele>
        <time>2012-05-06T15:33:23</time>
      </trkpt>
      <trkpt lat="43.51791" lon="5.74045">
        <ele>430.5</ele>
        <time>2012-05-06T15:34:34</time>
      </trkpt>
      <trkpt lat="43.51754" lon="5.74008">
        <ele>423</ele>
        <time>2012-05-06T15:35:31</time>
      </trkpt>
      <trkpt lat="43.51736" lon="5.73994">
        <ele>420</ele>
        <time>2012-05-06T15:35:59</time>
      </trkpt>
      <trkpt lat="43.51721" lon="5.73974">
        <ele>415.5</ele>
        <time>2012-05-06T15:36:30</time>
      </trkpt>
      <trkpt lat="43.517" lon="5.73956">
        <ele>407.5</ele>
        <time>2012-05-06T15:37:06</time>
      </trkpt>
      <trkpt lat="43.5168" lon="5.73927">
        <ele>405</ele>
        <time>2012-05-06T15:37:42</time>
      </trkpt>
      <trkpt lat="43.51664" lon="5.73879">
        <ele>410</ele>
        <time>2012-05-06T15:38:30</time>
      </trkpt>
      <trkpt lat="43.51637" lon="5.73898">
        <ele>404.5</ele>
        <time>2012-05-06T15:39:39</time>
      </trkpt>
      <trkpt lat="43.51621" lon="5.73926">
        <ele>403</ele>
        <time>2012-05-06T15:40:04</time>
      </trkpt>
      <trkpt lat="43.51603" lon="5.73974">
        <ele>402</ele>
        <time>2012-05-06T15:40:43</time>
      </trkpt>
      <trkpt lat="43.51591" lon="5.73997">
        <ele>402.5</ele>
        <time>2012-05-06T15:41:01</time>
      </trkpt>
      <trkpt lat="43.51579" lon="5.74027">
        <ele>402</ele>
        <time>2012-05-06T15:41:25</time>
      </trkpt>
      <trkpt lat="43.51564" lon="5.74061">
        <ele>401.5</ele>
        <time>2012-05-06T15:41:53</time>
      </trkpt>
      <trkpt lat="43.51525" lon="5.74159">
        <ele>398.5</ele>
        <time>2012-05-06T15:43:06</time>
      </trkpt>
      <trkpt lat="43.51506" lon="5.74204">
        <ele>399</ele>
        <time>2012-05-06T15:43:41</time>
      </trkpt>
      <trkpt lat="43.51493" lon="5.74235">
        <ele>399</ele>
        <time>2012-05-06T15:44:03</time>
      </trkpt>
      <trkpt lat="43.51482" lon="5.74263">
        <ele>400</ele>
        <time>2012-05-06T15:44:26</time>
      </trkpt>
      <trkpt lat="43.51458" lon="5.74321">
        <ele>398.5</ele>
        <time>2012-05-06T15:45:10</time>
      </trkpt>
      <trkpt lat="43.51444" lon="5.74358">
        <ele>398</ele>
        <time>2012-05-06T15:45:38</time>
      </trkpt>
      <trkpt lat="43.51423" lon="5.74415">
        <ele>398</ele>
        <time>2012-05-06T15:46:25</time>
      </trkpt>
      <trkpt lat="43.51402" lon="5.74454">
        <ele>401</ele>
        <time>2012-05-06T15:47:18</time>
      </trkpt>
      <trkpt lat="43.51428" lon="5.74469">
        <ele>400</ele>
        <time>2012-05-06T15:47:51</time>
      </trkpt>
      <trkpt lat="43.51446" lon="5.74441">
        <ele>411.5</ele>
        <time>2012-05-06T15:48:29</time>
      </trkpt>
    </trkseg>
  </trk>
</gpx>